Time;durP1;ratioP1;P1;durP2;ratioP2;P2;SDS_P1;SDS_P2;PMS_P1;PMS_P2;Temp;Humidity;BMP_temperature;BMP_pressure;BME280_temperature;BME280_humidity;BME280_pressure;Samples;Min_cycle;Max_cycle;Signal;HPM_P1;HPM_P2
2022/03/15 00:00:21;;;;;;;15.05;6.80;;;5.00;99.90;;;;;;5066474;28;20033;-77
2022/03/15 00:02:48;;;;;;;16.60;7.70;;;5.10;99.90;;;;;;5067594;28;20132;-77
2022/03/15 00:05:17;;;;;;;17.27;6.85;;;4.50;99.90;;;;;;5053318;28;20452;-77
2022/03/15 00:07:44;;;;;;;23.65;8.77;;;4.50;99.90;;;;;;5069235;28;20079;-77
2022/03/15 00:10:12;;;;;;;16.65;7.53;;;4.60;99.90;;;;;;5052786;28;20048;-77
2022/03/15 00:12:42;;;;;;;15.45;6.15;;;4.90;99.90;;;;;;5069889;28;20041;-76
2022/03/15 00:15:09;;;;;;;11.90;6.55;;;6.90;99.90;;;;;;5051671;28;20042;-76
2022/03/15 00:17:38;;;;;;;17.10;6.43;;;5.00;99.90;;;;;;5068939;28;20052;-76
2022/03/15 00:20:05;;;;;;;14.48;6.40;;;4.70;99.90;;;;;;5065711;28;20083;-76
2022/03/15 00:22:35;;;;;;;10.27;5.53;;;5.00;99.90;;;;;;5052507;28;20320;-76
2022/03/15 00:25:06;;;;;;;15.43;7.75;;;4.90;99.90;;;;;;5051989;28;20041;-76
2022/03/15 00:27:32;;;;;;;14.60;6.10;;;4.90;99.90;;;;;;5069103;28;20079;-77
2022/03/15 00:29:58;;;;;;;15.25;5.75;;;4.90;99.90;;;;;;5068529;28;20084;-76
2022/03/15 00:32:25;;;;;;;12.70;5.95;;;4.60;99.90;;;;;;5036143;28;20063;-77
2022/03/15 00:34:51;;;;;;;12.73;5.15;;;4.80;99.90;;;;;;5070625;28;20036;-77
2022/03/15 00:37:17;;;;;;;11.70;5.30;;;4.50;99.90;;;;;;5068158;28;20079;-78
2022/03/15 00:39:43;;;;;;;14.68;5.85;;;4.90;99.90;;;;;;5069577;28;20044;-78
2022/03/15 00:42:10;;;;;;;14.77;5.85;;;4.80;99.90;;;;;;5068602;28;20563;-77
2022/03/15 00:44:35;;;;;;;10.82;4.47;;;6.60;99.90;;;;;;5052279;28;20076;-77
2022/03/15 00:47:01;;;;;;;12.38;5.03;;;4.30;99.90;;;;;;5069667;28;20071;-81
2022/03/15 00:49:27;;;;;;;14.27;4.75;;;4.90;99.90;;;;;;5070594;28;20075;-77
2022/03/15 00:51:53;;;;;;;13.13;5.35;;;4.90;99.90;;;;;;5051374;28;20040;-78
2022/03/15 00:54:20;;;;;;;14.23;5.10;;;6.40;99.90;;;;;;5051962;28;20098;-77
2022/03/15 00:56:46;;;;;;;15.82;6.00;;;4.30;99.90;;;;;;5069716;28;20045;-77
2022/03/15 00:59:14;;;;;;;9.90;4.28;;;4.80;99.90;;;;;;5069402;28;20055;-77
2022/03/15 01:01:39;;;;;;;13.85;4.65;;;4.30;99.90;;;;;;5070007;28;20052;-75
2022/03/15 01:04:05;;;;;;;20.55;5.05;;;4.70;99.90;;;;;;5068114;28;20533;-76
2022/03/15 01:06:31;;;;;;;12.50;5.00;;;4.60;99.90;;;;;;5067987;28;20036;-76
2022/03/15 01:08:56;;;;;;;16.30;5.30;;;6.90;99.90;;;;;;5068299;28;20444;-76
2022/03/15 01:11:22;;;;;;;11.88;4.82;;;4.50;99.90;;;;;;5068079;28;20044;-77
2022/03/15 01:13:48;;;;;;;10.38;4.25;;;4.70;99.90;;;;;;5067856;28;20048;-76
2022/03/15 01:16:13;;;;;;;11.18;4.80;;;4.10;99.90;;;;;;5067074;28;20097;-77
2022/03/15 01:18:41;;;;;;;13.65;4.63;;;4.70;99.90;;;;;;5067589;28;20051;-76
2022/03/15 01:21:07;;;;;;;10.73;5.00;;;4.60;99.90;;;;;;5067822;28;20032;-77
2022/03/15 01:23:33;;;;;;;14.52;4.32;;;6.90;99.90;;;;;;5070155;28;20515;-77
2022/03/15 01:25:59;;;;;;;10.93;4.22;;;4.10;99.90;;;;;;5067157;28;20507;-77
2022/03/15 01:28:24;;;;;;;12.98;4.95;;;6.70;99.90;;;;;;5068069;28;20607;-77
2022/03/15 01:30:50;;;;;;;9.13;4.68;;;4.50;99.90;;;;;;5068677;28;20131;-77
2022/03/15 01:33:17;;;;;;;15.48;5.15;;;4.40;99.90;;;;;;5067192;28;20236;-78
2022/03/15 01:35:43;;;;;;;11.77;4.97;;;4.10;99.90;;;;;;5068838;28;20056;-77
2022/03/15 01:38:10;;;;;;;9.63;4.28;;;4.40;99.90;;;;;;5068807;28;20044;-75
2022/03/15 01:40:36;;;;;;;12.13;4.93;;;4.30;99.90;;;;;;5067823;28;20044;-76
2022/03/15 01:43:02;;;;;;;13.40;5.10;;;4.50;99.90;;;;;;5050885;28;20168;-77
2022/03/15 01:45:36;;;;;;;13.48;5.22;;;4.50;99.90;;;;;;5067407;28;20499;-77
2022/03/15 01:48:03;;;;;;;15.80;6.23;;;4.60;99.90;;;;;;5066609;28;20036;-76
2022/03/15 01:50:29;;;;;;;13.25;5.45;;;4.50;99.90;;;;;;5068178;28;20378;-77
2022/03/15 01:52:54;;;;;;;15.70;5.97;;;4.10;99.90;;;;;;5069138;28;20131;-77
2022/03/15 01:55:20;;;;;;;11.40;5.18;;;4.40;99.90;;;;;;5067308;28;20052;-77
2022/03/15 01:57:47;;;;;;;10.35;5.63;;;4.50;99.90;;;;;;5050758;28;20083;-77
2022/03/15 02:00:14;;;;;;;9.98;6.05;;;5.90;99.90;;;;;;5067292;28;20040;-76
2022/03/15 02:02:40;;;;;;;14.93;6.03;;;4.50;99.90;;;;;;5050488;28;20072;-77
2022/03/15 02:05:06;;;;;;;16.60;6.22;;;4.70;99.90;;;;;;5068723;28;20428;-77
2022/03/15 02:07:32;;;;;;;16.65;6.53;;;4.60;99.90;;;;;;5066591;28;20048;-77
2022/03/15 02:09:57;;;;;;;18.63;6.32;;;4.60;99.90;;;;;;5050923;28;20045;-77
2022/03/15 02:12:23;;;;;;;18.13;6.03;;;4.60;99.90;;;;;;5067644;28;20068;-77
2022/03/15 02:14:49;;;;;;;20.67;7.13;;;4.60;99.90;;;;;;5049901;28;20102;-77
2022/03/15 02:17:15;;;;;;;14.40;6.30;;;5.00;99.90;;;;;;5050694;28;20036;-77
2022/03/15 02:19:42;;;;;;;14.40;6.68;;;4.90;99.90;;;;;;5069158;28;20052;-77
2022/03/15 02:22:08;;;;;;;14.60;6.13;;;4.50;99.90;;;;;;5049624;28;20534;-76
2022/03/15 02:24:34;;;;;;;12.52;5.85;;;6.60;99.90;;;;;;5050880;28;20113;-77
2022/03/15 02:27:01;;;;;;;14.80;5.72;;;4.30;99.90;;;;;;5066387;28;20052;-77
2022/03/15 02:29:27;;;;;;;12.98;6.50;;;4.50;99.90;;;;;;5049654;28;20044;-76
2022/03/15 02:31:53;;;;;;;14.35;6.65;;;4.30;99.90;;;;;;5050292;28;20056;-76
2022/03/15 02:34:19;;;;;;;14.15;6.68;;;4.30;99.90;;;;;;5050571;28;20428;-77
2022/03/15 02:36:45;;;;;;;10.55;5.72;;;4.30;99.90;;;;;;5065959;28;20124;-77
2022/03/15 02:39:11;;;;;;;11.02;6.82;;;4.70;99.90;;;;;;5061951;28;20168;-77
2022/03/15 02:41:36;;;;;;;16.23;7.63;;;4.80;99.90;;;;;;5068338;28;20235;-77
2022/03/15 02:44:02;;;;;;;16.27;7.45;;;4.80;99.90;;;;;;5065929;28;20037;-76
2022/03/15 02:46:33;;;;;;;7.03;5.68;;;4.90;99.90;;;;;;5066955;28;20117;-77
2022/03/15 02:48:58;;;;;;;17.92;7.68;;;4.90;99.90;;;;;;5066277;28;20040;-77
2022/03/15 02:51:27;;;;;;;14.02;7.07;;;4.90;99.90;;;;;;5050193;28;20404;-78
2022/03/15 02:53:53;;;;;;;10.48;6.57;;;4.80;99.90;;;;;;5050550;28;20044;-78
2022/03/15 02:56:20;;;;;;;12.07;6.55;;;4.60;99.90;;;;;;5066047;28;20480;-77
2022/03/15 02:58:45;;;;;;;11.60;6.50;;;4.50;99.90;;;;;;5066075;28;20162;-77
2022/03/15 03:01:11;;;;;;;13.95;7.07;;;4.90;99.90;;;;;;5067849;28;20530;-77
2022/03/15 03:03:37;;;;;;;14.75;6.90;;;4.90;99.90;;;;;;5049505;28;20119;-76
2022/03/15 03:06:03;;;;;;;14.70;6.55;;;4.80;99.90;;;;;;5066008;28;20044;-77
2022/03/15 03:08:30;;;;;;;15.57;6.45;;;5.00;99.90;;;;;;5067590;28;20029;-77
2022/03/15 03:10:59;;;;;;;13.57;6.80;;;5.00;99.90;;;;;;5067186;28;20048;-76
2022/03/15 03:13:28;;;;;;;13.52;6.65;;;5.10;99.90;;;;;;5066582;28;20036;-77
2022/03/15 03:15:59;;;;;;;15.00;6.93;;;5.00;99.90;;;;;;5065941;28;20048;-77
2022/03/15 03:18:28;;;;;;;14.68;7.05;;;5.10;99.90;;;;;;5066234;28;20028;-77
2022/03/15 03:20:54;;;;;;;16.13;7.30;;;6.30;99.90;;;;;;5065350;28;20043;-78
2022/03/15 03:23:21;;;;;;;12.90;7.75;;;5.10;99.90;;;;;;5065581;28;20040;-77
2022/03/15 03:25:47;;;;;;;16.75;7.25;;;5.00;99.90;;;;;;5048941;28;20043;-77
2022/03/15 03:28:13;;;;;;;17.05;7.10;;;4.60;99.90;;;;;;5058137;28;20041;-77
2022/03/15 03:30:45;;;;;;;16.17;7.50;;;5.10;99.90;;;;;;5066708;28;20488;-77
2022/03/15 03:33:11;;;;;;;14.00;7.78;;;5.10;99.90;;;;;;5065568;28;20040;-77
2022/03/15 03:35:36;;;;;;;19.67;7.55;;;5.70;99.90;;;;;;5066140;28;20041;-77
2022/03/15 03:38:04;;;;;;;13.98;7.10;;;5.10;99.90;;;;;;5068630;28;20052;-77
2022/03/15 03:40:29;;;;;;;16.40;7.38;;;4.70;99.90;;;;;;5071392;28;20080;-77
2022/03/15 03:42:55;;;;;;;13.90;7.68;;;4.70;99.90;;;;;;5071340;28;20075;-76
2022/03/15 03:45:21;;;;;;;18.65;6.97;;;4.50;99.90;;;;;;5069780;28;20037;-76
2022/03/15 03:47:46;;;;;;;15.32;7.57;;;5.90;99.90;;;;;;5069644;28;20048;-77
2022/03/15 03:50:12;;;;;;;18.25;7.63;;;6.80;99.90;;;;;;5071618;28;20460;-77
2022/03/15 03:52:38;;;;;;;19.20;8.30;;;5.10;99.90;;;;;;5071050;28;20040;-77
2022/03/15 03:55:04;;;;;;;20.70;8.05;;;6.50;99.90;;;;;;5069414;28;20043;-77
2022/03/15 03:57:30;;;;;;;19.58;8.75;;;5.30;99.90;;;;;;5069876;28;20117;-78
2022/03/15 03:59:56;;;;;;;17.58;9.07;;;5.30;99.90;;;;;;5069472;28;20043;-78
2022/03/15 04:02:21;;;;;;;19.60;8.90;;;7.20;99.90;;;;;;5069918;28;20471;-76
2022/03/15 04:04:47;;;;;;;19.80;9.35;;;5.70;99.90;;;;;;5070076;28;20033;-75
2022/03/15 04:07:14;;;;;;;15.68;8.85;;;4.90;99.90;;;;;;5070148;28;20112;-77
2022/03/15 04:09:40;;;;;;;18.08;8.50;;;6.00;99.90;;;;;;5070057;28;20124;-76
2022/03/15 04:12:06;;;;;;;23.88;9.82;;;5.20;99.90;;;;;;5052647;28;20135;-77
2022/03/15 04:14:34;;;;;;;15.70;9.35;;;5.30;99.90;;;;;;5052249;28;20228;-76
2022/03/15 04:17:01;;;;;;;22.55;11.38;;;5.10;99.90;;;;;;5066825;28;20561;-76
2022/03/15 04:19:27;;;;;;;18.42;9.63;;;6.50;99.90;;;;;;5071646;28;20560;-76
2022/03/15 04:21:52;;;;;;;23.80;10.60;;;5.80;99.90;;;;;;5051969;28;20131;-76
2022/03/15 04:24:18;;;;;;;16.67;9.48;;;5.50;99.90;;;;;;5069701;28;20040;-76
2022/03/15 04:26:46;;;;;;;23.23;11.18;;;5.50;99.90;;;;;;5052071;28;20128;-76
2022/03/15 04:29:12;;;;;;;16.55;10.48;;;5.50;99.90;;;;;;5051955;28;20055;-77
2022/03/15 04:31:37;;;;;;;15.75;9.75;;;5.50;99.90;;;;;;5052703;28;20033;-79
2022/03/15 04:34:03;;;;;;;22.02;10.30;;;6.20;99.90;;;;;;5052484;28;20151;-77
2022/03/15 04:36:29;;;;;;;19.30;11.80;;;5.30;99.90;;;;;;5068421;28;20044;-77
2022/03/15 04:38:55;;;;;;;23.95;11.00;;;6.60;99.90;;;;;;5069488;28;20052;-78
2022/03/15 04:41:21;;;;;;;19.90;10.18;;;5.60;99.90;;;;;;5069260;28;20044;-76
2022/03/15 04:43:47;;;;;;;19.42;12.18;;;5.70;99.90;;;;;;5051677;28;20120;-76
2022/03/15 04:46:12;;;;;;;27.48;12.20;;;5.70;99.90;;;;;;5068783;28;20049;-76
2022/03/15 04:48:38;;;;;;;20.25;11.95;;;5.70;99.90;;;;;;5068929;28;20325;-76
2022/03/15 04:51:04;;;;;;;20.73;11.35;;;5.70;99.90;;;;;;5068058;28;20044;-77
2022/03/15 04:53:30;;;;;;;27.00;11.55;;;5.20;99.90;;;;;;5068247;28;20569;-76
2022/03/15 04:55:56;;;;;;;17.42;11.30;;;5.60;99.90;;;;;;5092367;28;20370;-76
2022/03/15 04:58:23;;;;;;;21.30;11.60;;;5.30;99.90;;;;;;5052394;28;20109;-77
2022/03/15 05:00:49;;;;;;;21.10;12.25;;;5.10;99.90;;;;;;5052528;28;20045;-76
2022/03/15 05:03:16;;;;;;;21.73;11.85;;;5.70;99.90;;;;;;5067929;28;20068;-76
2022/03/15 05:05:44;;;;;;;22.60;12.80;;;5.80;99.90;;;;;;5069109;28;20110;-75
2022/03/15 05:08:09;;;;;;;21.05;11.50;;;5.70;99.90;;;;;;5073268;28;20043;-76
2022/03/15 05:13:20;;;;;;;23.70;12.50;;;5.70;99.90;;;;;;5062688;28;20048;-76
2022/03/15 05:15:49;;;;;;;21.92;11.73;;;5.80;99.90;;;;;;5068679;28;20040;-75
2022/03/15 05:18:15;;;;;;;22.00;12.38;;;5.80;99.90;;;;;;5067891;28;20040;-76
2022/03/15 05:20:40;;;;;;;18.88;12.70;;;5.80;99.90;;;;;;5070114;28;20035;-82
2022/03/15 05:23:06;;;;;;;21.45;12.75;;;5.60;99.90;;;;;;5051989;28;20080;-76
2022/03/15 05:25:32;;;;;;;25.50;12.65;;;5.60;99.90;;;;;;5068336;28;20076;-76
2022/03/15 05:27:57;;;;;;;23.98;12.00;;;5.80;99.90;;;;;;5068427;28;20044;-77
2022/03/15 05:30:23;;;;;;;25.88;14.00;;;6.90;99.90;;;;;;5068759;28;20681;-77
2022/03/15 05:32:49;;;;;;;20.15;11.95;;;5.70;99.90;;;;;;5069276;28;20049;-78
2022/03/15 05:35:15;;;;;;;23.13;12.18;;;5.40;99.90;;;;;;5068013;28;20833;-79
2022/03/15 05:37:43;;;;;;;19.58;11.95;;;5.10;99.90;;;;;;5051873;28;20680;-77
2022/03/15 05:40:10;;;;;;;22.45;12.88;;;5.60;99.90;;;;;;5067933;28;20090;-77
2022/03/15 05:42:36;;;;;;;25.67;12.60;;;5.70;99.90;;;;;;5068379;28;20051;-79
2022/03/15 05:45:03;;;;;;;21.90;11.77;;;5.60;99.90;;;;;;5067944;28;20447;-77
2022/03/15 05:47:28;;;;;;;20.85;12.20;;;5.70;99.90;;;;;;5067771;28;20244;-79
2022/03/15 05:49:54;;;;;;;23.10;14.32;;;5.30;99.90;;;;;;5068235;28;20079;-77
2022/03/15 05:52:20;;;;;;;29.00;13.30;;;5.40;99.90;;;;;;5050778;28;20502;-77
2022/03/15 05:54:45;;;;;;;26.25;13.05;;;5.30;99.90;;;;;;5069268;28;20089;-79
2022/03/15 05:57:11;;;;;;;27.95;14.23;;;5.60;99.90;;;;;;5051070;28;20063;-77
2022/03/15 05:59:37;;;;;;;23.60;12.43;;;5.20;99.90;;;;;;5069049;28;20490;-77
2022/03/15 06:02:02;;;;;;;73.20;51.70;;;5.60;99.90;;;;;;5068141;28;20098;-78
2022/03/15 06:04:28;;;;;;;308.15;195.75;;;5.70;99.90;;;;;;5051520;28;20040;-77
2022/03/15 06:06:55;;;;;;;36.25;21.60;;;5.40;99.90;;;;;;5067075;28;20044;-80
2022/03/15 06:09:22;;;;;;;26.85;15.30;;;5.40;99.90;;;;;;5051590;28;20032;-77
2022/03/15 06:11:48;;;;;;;22.45;13.95;;;6.50;99.90;;;;;;5067908;28;20037;-76
2022/03/15 06:14:14;;;;;;;22.23;13.57;;;5.60;99.90;;;;;;5067136;28;20032;-77
2022/03/15 06:16:40;;;;;;;23.05;14.45;;;5.80;99.90;;;;;;5055088;28;20507;-77
2022/03/15 06:19:06;;;;;;;22.42;14.27;;;5.60;99.90;;;;;;5051183;28;20139;-81
2022/03/15 06:21:31;;;;;;;24.75;13.95;;;5.20;99.90;;;;;;5068251;28;20044;-76
2022/03/15 06:23:57;;;;;;;29.20;15.15;;;5.30;99.90;;;;;;5050352;28;20185;-77
2022/03/15 06:26:23;;;;;;;31.45;15.20;;;5.60;99.90;;;;;;5067539;28;20044;-76
2022/03/15 06:28:48;;;;;;;24.95;14.30;;;5.10;99.90;;;;;;5066564;28;20054;-76
2022/03/15 06:31:14;;;;;;;28.92;15.32;;;5.60;99.90;;;;;;5068556;28;20676;-78
2022/03/15 06:33:42;;;;;;;26.90;15.48;;;5.40;99.90;;;;;;5051133;28;20044;-76
2022/03/15 06:36:09;;;;;;;29.58;15.38;;;6.50;99.90;;;;;;5066158;28;20539;-77
2022/03/15 06:38:35;;;;;;;33.28;15.98;;;5.90;99.90;;;;;;5068974;28;20133;-76
2022/03/15 06:41:00;;;;;;;23.30;15.07;;;5.60;99.90;;;;;;5050343;28;20040;-78
2022/03/15 06:43:26;;;;;;;35.97;16.98;;;5.70;99.90;;;;;;5050133;28;20110;-77
2022/03/15 06:45:52;;;;;;;25.70;15.60;;;5.80;99.90;;;;;;5068205;28;20043;-77
2022/03/15 06:48:17;;;;;;;29.00;17.27;;;6.70;99.90;;;;;;5050774;28;20040;-79
2022/03/15 06:50:43;;;;;;;345.67;229.07;;;5.60;99.90;;;;;;5050276;28;20316;-77
2022/03/15 06:53:09;;;;;;;64.97;40.28;;;5.40;99.90;;;;;;5067197;28;20048;-77
2022/03/15 06:55:34;;;;;;;30.80;20.10;;;5.80;99.90;;;;;;5067675;28;20048;-76
2022/03/15 06:58:00;;;;;;;27.95;18.67;;;5.80;99.90;;;;;;5067170;28;20080;-77
2022/03/15 07:00:26;;;;;;;32.17;18.67;;;5.40;99.90;;;;;;5067392;28;20090;-77
2022/03/15 07:02:52;;;;;;;34.95;18.33;;;5.90;99.90;;;;;;5067571;28;20527;-77
2022/03/15 07:05:17;;;;;;;44.40;25.50;;;5.90;99.90;;;;;;5067071;28;20072;-77
2022/03/15 07:07:43;;;;;;;32.80;16.05;;;5.60;99.90;;;;;;4368090;28;10021416;-77
2022/03/15 07:10:10;;;;;;;34.40;18.50;;;5.90;99.90;;;;;;5063525;28;20087;-78
2022/03/15 07:12:37;;;;;;;32.88;18.90;;;5.90;99.90;;;;;;5047004;28;20044;-77
2022/03/15 07:15:04;;;;;;;31.77;18.42;;;5.70;99.90;;;;;;5046378;28;20641;-77
2022/03/15 07:17:30;;;;;;;34.20;18.95;;;6.00;99.90;;;;;;5056389;28;20063;-77
2022/03/15 07:19:57;;;;;;;41.78;20.25;;;7.60;99.90;;;;;;5065590;28;20040;-77
2022/03/15 07:22:24;;;;;;;35.65;20.50;;;6.30;99.90;;;;;;5066545;28;20044;-76
2022/03/15 07:24:51;;;;;;;35.17;21.52;;;6.00;99.90;;;;;;5063222;28;20174;-76
2022/03/15 07:27:17;;;;;;;35.85;19.20;;;6.00;99.90;;;;;;5047687;28;20062;-76
2022/03/15 07:29:43;;;;;;;33.75;18.85;;;6.20;99.90;;;;;;5065073;28;20048;-76
2022/03/15 07:32:09;;;;;;;32.78;19.15;;;5.90;99.90;;;;;;5046710;28;20097;-76
2022/03/15 07:34:34;;;;;;;36.78;20.60;;;6.00;99.90;;;;;;5064480;28;20044;-76
2022/03/15 07:37:00;;;;;;;36.58;20.38;;;6.30;99.90;;;;;;5047424;28;20055;-76
2022/03/15 07:39:26;;;;;;;38.58;21.63;;;5.70;99.90;;;;;;5064070;28;20035;-76
2022/03/15 07:41:52;;;;;;;36.17;21.15;;;5.70;99.90;;;;;;5065945;28;20541;-78
2022/03/15 07:44:18;;;;;;;32.88;20.90;;;5.90;99.90;;;;;;5065767;28;20422;-79
2022/03/15 07:46:48;;;;;;;32.90;20.73;;;5.90;99.90;;;;;;5063984;28;20080;-76
2022/03/15 07:49:21;;;;;;;40.40;21.70;;;5.90;99.90;;;;;;5064054;28;20399;-77
2022/03/15 07:51:48;;;;;;;33.92;20.25;;;6.30;99.90;;;;;;5047931;28;20071;-77
2022/03/15 07:54:14;;;;;;;35.10;20.90;;;6.30;99.90;;;;;;5064369;28;20314;-79
2022/03/15 07:56:40;;;;;;;38.60;23.50;;;6.30;99.90;;;;;;5064631;28;20041;-79
2022/03/15 07:59:06;;;;;;;38.08;20.92;;;6.30;99.90;;;;;;5064380;28;20040;-77
2022/03/15 08:01:32;;;;;;;37.42;21.23;;;5.90;99.90;;;;;;5060318;28;20037;-77
2022/03/15 08:03:58;;;;;;;29.02;20.10;;;8.40;99.90;;;;;;5066566;28;20040;-77
2022/03/15 08:06:23;;;;;;;33.72;20.77;;;6.40;99.90;;;;;;5050063;28;20045;-77
2022/03/15 08:08:49;;;;;;;32.25;20.58;;;5.90;99.90;;;;;;5049114;28;20468;-78
2022/03/15 08:11:15;;;;;;;36.08;20.95;;;6.20;99.90;;;;;;5049675;28;20113;-77
2022/03/15 08:13:40;;;;;;;33.28;19.42;;;5.80;99.90;;;;;;5045595;28;20041;-77
2022/03/15 08:16:06;;;;;;;29.60;20.42;;;6.20;99.90;;;;;;5059232;28;20104;-78
2022/03/15 08:18:33;;;;;;;31.70;19.42;;;6.00;99.90;;;;;;5062158;28;20507;-77
2022/03/15 08:20:59;;;;;;;29.65;19.88;;;6.40;99.90;;;;;;5065529;28;20079;-77
2022/03/15 08:23:27;;;;;;;34.65;20.73;;;6.10;99.90;;;;;;5066330;28;20496;-77
2022/03/15 08:25:55;;;;;;;35.53;21.80;;;8.70;99.90;;;;;;5072919;28;20103;-77
2022/03/15 08:28:23;;;;;;;32.28;20.33;;;6.60;99.90;;;;;;5070744;28;20044;-77
2022/03/15 08:30:49;;;;;;;34.33;21.75;;;6.50;99.90;;;;;;5071458;28;20036;-77
2022/03/15 08:33:14;;;;;;;31.55;20.75;;;6.70;99.90;;;;;;5053136;28;20519;-77
2022/03/15 08:35:40;;;;;;;39.38;22.40;;;7.90;99.90;;;;;;5071189;28;20495;-78
2022/03/15 08:38:06;;;;;;;37.35;21.05;;;6.30;99.90;;;;;;5069921;28;20126;-78
2022/03/15 08:40:32;;;;;;;41.80;23.60;;;6.70;99.90;;;;;;5054838;28;20032;-77
2022/03/15 08:42:58;;;;;;;36.55;22.83;;;6.80;99.90;;;;;;5053582;28;20040;-77
2022/03/15 08:45:23;;;;;;;38.97;22.25;;;7.30;99.90;;;;;;5072429;28;20043;-77
2022/03/15 08:47:49;;;;;;;39.00;22.95;;;8.30;99.90;;;;;;5072961;28;20491;-77
2022/03/15 08:50:15;;;;;;;33.17;21.23;;;7.90;99.90;;;;;;5070688;28;20044;-77
2022/03/15 08:52:41;;;;;;;37.70;22.35;;;6.80;99.90;;;;;;5062440;28;20040;-77
2022/03/15 08:55:07;;;;;;;33.10;22.63;;;6.70;99.90;;;;;;5070045;28;20569;-78
2022/03/15 08:57:33;;;;;;;35.72;23.35;;;7.10;99.90;;;;;;5055044;28;20051;-77
2022/03/15 08:59:58;;;;;;;39.88;23.65;;;7.10;99.90;;;;;;5070734;28;20115;-77
2022/03/15 09:02:24;;;;;;;86.07;56.53;;;7.10;99.90;;;;;;5070593;28;20055;-78
2022/03/15 09:04:50;;;;;;;51.55;32.28;;;7.90;99.90;;;;;;5070653;28;20397;-77
2022/03/15 09:07:15;;;;;;;33.38;24.13;;;7.30;99.90;;;;;;5071107;28;20040;-77
2022/03/15 09:09:41;;;;;;;35.92;22.92;;;7.20;99.90;;;;;;5070833;28;20036;-78
2022/03/15 09:12:07;;;;;;;32.47;23.13;;;7.20;99.90;;;;;;5071574;28;20084;-81
2022/03/15 09:14:32;;;;;;;35.25;22.85;;;7.50;99.90;;;;;;5070547;28;20037;-78
2022/03/15 09:16:58;;;;;;;40.53;23.45;;;7.50;99.90;;;;;;5069145;28;20113;-78
2022/03/15 09:19:25;;;;;;;32.30;23.05;;;7.50;99.90;;;;;;5054560;28;20037;-81
2022/03/15 09:21:51;;;;;;;35.10;23.05;;;8.50;99.90;;;;;;5071279;28;20048;-79
2022/03/15 09:24:17;;;;;;;32.08;22.80;;;7.60;99.90;;;;;;5069788;28;20056;-78
2022/03/15 09:26:43;;;;;;;29.52;21.30;;;7.70;99.90;;;;;;5072162;28;20040;-78
2022/03/15 09:29:12;;;;;;;30.15;21.42;;;7.70;99.90;;;;;;5070156;28;20053;-77
2022/03/15 09:31:38;;;;;;;31.30;21.63;;;7.70;99.90;;;;;;5070070;28;20522;-77
2022/03/15 09:34:05;;;;;;;29.23;20.58;;;7.70;99.90;;;;;;5070091;28;20491;-78
2022/03/15 09:36:31;;;;;;;29.50;21.15;;;7.70;99.90;;;;;;5071162;28;20052;-78
2022/03/15 09:38:57;;;;;;;30.33;22.67;;;7.50;99.90;;;;;;5069466;28;20547;-77
2022/03/15 09:41:27;;;;;;;30.55;21.65;;;8.90;99.90;;;;;;5070750;28;20040;-77
2022/03/15 09:43:54;;;;;;;32.53;21.17;;;7.50;99.90;;;;;;5053294;28;20484;-77
2022/03/15 09:46:22;;;;;;;34.30;21.08;;;9.20;99.90;;;;;;5065796;28;20056;-77
2022/03/15 09:48:53;;;;;;;30.33;21.50;;;7.50;99.90;;;;;;5062195;28;20040;-77
2022/03/15 09:51:19;;;;;;;28.40;21.20;;;7.90;99.90;;;;;;5070944;28;20040;-78
2022/03/15 09:53:46;;;;;;;35.70;20.52;;;7.90;99.90;;;;;;5068003;28;20045;-77
2022/03/15 09:56:15;;;;;;;30.05;19.70;;;8.10;99.90;;;;;;5053326;28;20040;-77
2022/03/15 09:58:41;;;;;;;28.42;20.50;;;9.40;99.90;;;;;;5069585;28;20068;-77
2022/03/15 10:01:13;;;;;;;33.70;20.63;;;9.80;99.90;;;;;;5069920;28;20036;-78
2022/03/15 10:03:39;;;;;;;27.98;20.70;;;8.20;99.90;;;;;;5052866;28;20076;-78
2022/03/15 10:06:05;;;;;;;27.58;20.35;;;9.60;99.90;;;;;;5068667;28;20072;-79
2022/03/15 10:08:30;;;;;;;23.80;18.67;;;7.90;99.90;;;;;;5053422;28;20040;-77
2022/03/15 10:10:56;;;;;;;32.88;21.70;;;8.00;99.90;;;;;;5036750;28;20032;-80
2022/03/15 10:13:22;;;;;;;26.40;18.60;;;7.90;99.90;;;;;;5070495;28;20044;-78
2022/03/15 10:15:58;;;;;;;27.38;19.10;;;9.00;99.90;;;;;;5051024;28;20077;-81
2022/03/15 10:18:24;;;;;;;29.65;20.45;;;9.70;99.90;;;;;;5069178;28;20045;-78
2022/03/15 10:20:50;;;;;;;28.23;20.10;;;10.10;99.90;;;;;;5060578;28;20032;-77
2022/03/15 10:23:16;;;;;;;29.98;20.48;;;8.50;99.90;;;;;;5053069;28;20396;-77
2022/03/15 10:25:48;;;;;;;32.97;20.73;;;8.50;99.90;;;;;;5069487;28;20419;-77
2022/03/15 10:28:14;;;;;;;37.65;21.20;;;8.50;99.90;;;;;;5035413;28;20078;-77
2022/03/15 10:30:41;;;;;;;35.88;21.17;;;8.50;99.90;;;;;;5052381;28;20028;-77
2022/03/15 10:33:07;;;;;;;29.65;18.85;;;8.20;99.90;;;;;;5036095;28;20510;-78
2022/03/15 10:35:53;;;;;;;30.15;20.30;;;10.10;99.90;;;;;;5069566;28;20036;-78
2022/03/15 10:38:18;;;;;;;25.40;18.20;;;8.50;99.90;;;;;;5069572;28;20036;-77
2022/03/15 10:40:50;;;;;;;24.13;17.15;;;10.30;99.90;;;;;;5051498;28;20067;-78
2022/03/15 10:43:27;;;;;;;26.13;17.95;;;9.90;99.90;;;;;;5068532;28;20123;-77
2022/03/15 10:45:57;;;;;;;24.80;18.20;;;8.80;99.90;;;;;;5061338;28;20377;-77
2022/03/15 10:48:30;;;;;;;25.08;18.42;;;10.90;99.90;;;;;;5068801;28;20052;-81
2022/03/15 10:51:00;;;;;;;23.20;17.17;;;8.70;99.90;;;;;;5061667;28;20044;-77
2022/03/15 10:53:35;;;;;;;30.50;16.98;;;10.20;99.90;;;;;;5070462;28;20430;-77
2022/03/15 10:56:10;;;;;;;27.67;17.70;;;8.40;99.90;;;;;;5060618;28;20149;-78
2022/03/15 10:58:46;;;;;;;28.17;18.30;;;8.70;99.90;;;;;;5052570;28;20044;-76
2022/03/15 11:01:15;;;;;;;27.40;17.30;;;8.60;99.90;;;;;;5052428;28;20503;-77
2022/03/15 11:04:11;;;;;;;29.80;18.25;;;8.50;99.90;;;;;;5051520;28;20496;-77
2022/03/15 11:06:43;;;;;;;33.75;19.55;;;8.50;99.90;;;;;;5068064;28;20117;-77
2022/03/15 11:09:17;;;;;;;27.40;18.67;;;8.10;99.90;;;;;;5069729;28;20480;-78
2022/03/15 11:11:45;;;;;;;27.90;18.53;;;9.90;99.90;;;;;;5069951;28;20368;-79
2022/03/15 11:14:11;;;;;;;29.65;17.58;;;7.90;99.90;;;;;;5051937;28;20094;-79
2022/03/15 11:16:38;;;;;;;25.35;17.27;;;8.50;99.90;;;;;;5068034;28;20041;-79
2022/03/15 11:19:05;;;;;;;26.15;18.10;;;8.50;99.90;;;;;;5063251;28;20535;-80
2022/03/15 11:21:34;;;;;;;23.48;17.17;;;8.40;99.90;;;;;;4367884;28;10000679;-80
2022/03/15 11:24:02;;;;;;;28.38;18.42;;;8.40;99.90;;;;;;5064080;28;20128;-80
2022/03/15 11:26:33;;;;;;;26.95;17.77;;;8.40;99.90;;;;;;5066977;28;20444;-80
2022/03/15 11:29:02;;;;;;;26.98;17.05;;;8.40;99.90;;;;;;5057836;28;20053;-79
2022/03/15 11:31:29;;;;;;;23.48;17.27;;;8.40;99.90;;;;;;5066746;28;20167;-80
2022/03/15 11:33:58;;;;;;;21.65;16.45;;;8.40;99.90;;;;;;5067757;28;20043;-81
2022/03/15 11:36:25;;;;;;;27.83;17.27;;;8.40;99.90;;;;;;5049678;28;20178;-79
2022/03/15 11:38:52;;;;;;;28.83;18.15;;;8.50;99.90;;;;;;5065424;28;20131;-80
2022/03/15 11:41:21;;;;;;;27.40;17.92;;;8.40;99.90;;;;;;5066499;28;20048;-80
2022/03/15 11:44:19;;;;;;;27.10;18.88;;;8.40;99.90;;;;;;5063911;28;20041;-80
2022/03/15 11:46:54;;;;;;;28.85;19.33;;;8.50;99.90;;;;;;5066013;28;20127;-80
2022/03/15 11:49:56;;;;;;;27.40;18.30;;;8.50;99.90;;;;;;5067396;28;20048;-80
2022/03/15 11:53:19;;;;;;;31.17;18.98;;;8.50;99.90;;;;;;5035340;28;20043;-80
2022/03/15 11:55:59;;;;;;;27.60;17.85;;;8.50;99.90;;;;;;5025941;28;20607;-80
2022/03/15 11:58:28;;;;;;;32.72;19.25;;;8.60;99.90;;;;;;5011745;28;20049;-81
2022/03/15 12:00:54;;;;;;;31.10;19.50;;;8.50;99.90;;;;;;5036505;28;20056;-80
2022/03/15 12:03:22;;;;;;;31.75;21.92;;;8.60;99.90;;;;;;5053286;28;20045;-81
2022/03/15 12:05:54;;;;;;;31.67;21.52;;;8.70;99.90;;;;;;5052392;28;20041;-80
2022/03/15 12:08:27;;;;;;;29.92;20.17;;;8.70;99.90;;;;;;5053826;28;20534;-80
2022/03/15 12:10:58;;;;;;;26.05;19.73;;;8.70;99.90;;;;;;5071697;28;20045;-81
2022/03/15 12:13:39;;;;;;;29.70;20.95;;;8.80;99.90;;;;;;5070733;28;20488;-80
2022/03/15 12:16:15;;;;;;;64.20;48.00;;;8.90;99.90;;;;;;5062852;28;20040;-80
2022/03/15 12:18:45;;;;;;;42.67;28.13;;;9.00;99.90;;;;;;5070069;28;20055;-80
2022/03/15 12:21:11;;;;;;;31.33;21.15;;;9.10;99.90;;;;;;5069295;28;20049;-79
2022/03/15 12:23:48;;;;;;;28.45;18.73;;;9.10;99.90;;;;;;5069831;28;20044;-81
2022/03/15 12:26:28;;;;;;;30.95;17.98;;;10.30;99.90;;;;;;5052461;28;20055;-79
2022/03/15 12:29:07;;;;;;;25.90;17.73;;;9.30;99.90;;;;;;5067662;28;20080;-79
2022/03/15 12:31:32;;;;;;;28.85;16.92;;;9.40;99.90;;;;;;5049604;28;20488;-80
2022/03/15 12:34:04;;;;;;;28.38;16.85;;;9.50;99.90;;;;;;5070209;28;20127;-79
2022/03/15 12:36:36;;;;;;;24.67;15.18;;;9.50;99.90;;;;;;5071008;28;20046;-79
2022/03/15 12:39:14;;;;;;;23.52;16.40;;;9.60;99.90;;;;;;5053256;28;20484;-79
2022/03/15 12:41:39;;;;;;;20.58;13.50;;;9.70;99.90;;;;;;5072499;28;20422;-80
2022/03/15 12:44:07;;;;;;;16.50;11.13;;;9.80;99.90;;;;;;5070852;28;20048;-80